Ergani, Turkey
Current Conditions -  °F | °C
As of 1:20 PM on Saturday 01 Nov 2014 (Local Time) from LTCA Reporting Station
Broken Clouds Broken Clouds  
Wind Chill: 54°   Ceiling: 3000
Heat Index: 54°   Visibility: 6mi
Dew Point: 46°   Wind: 2mph
Humidity: 77%   Direction: NA
Pressure: 29.88"   Gusts: NA
Location:  38.27°N, 39.76°E
Report Text: LTCA 011020Z VRB02KT 9999 BKN030 BKN090 12/08 Q1012 RESHRA NOSIGRMK RWY07 27005KT
Loading
Personal Weather Stations






























Interactive Weather Map
Tropical Storm Tracking
New forecast layout! Learn more

10-Day Weather Forecast

Advertisements
Track Severe Weather on mobile